Time,TemperatureF,DewpointF,PressureIn,WindDirection,WindDirectionDegrees,WindSpeedMPH,WindSpeedGustMPH,Humidity,HourlyPrecipIn,Conditions,Clouds,dailyrainin,SolarRadiationWatts/m^2,SoftwareType,DateUTC
2013-06-04 00:01:00,61.9,59.9,29.99,WNW,301,0.0,0.0,93,0.00,,,0.00,0,Wunderground v.1.15,2013-06-04 04:01:00,
2013-06-04 00:03:00,61.8,59.8,29.99,WNW,301,0.0,0.0,93,0.00,,,0.00,0,Wunderground v.1.15,2013-06-04 04:03:00,
2013-06-04 00:04:00,61.8,59.8,29.99,WNW,301,0.0,0.0,93,0.00,,,0.00,0,Wunderground v.1.15,2013-06-04 04:04:00,
2013-06-04 00:09:00,61.6,59.6,29.99,WNW,301,0.0,0.0,93,0.00,,,0.00,0,Wunderground v.1.15,2013-06-04 04:09:00,
2013-06-04 00:10:00,61.6,59.6,29.99,WNW,301,0.0,0.0,93,0.00,,,0.00,0,Wunderground v.1.15,2013-06-04 04:10:00,
2013-06-04 00:15:00,61.4,59.4,29.99,WNW,301,0.0,0.0,93,0.00,,,0.00,0,Wunderground v.1.15,2013-06-04 04:15:00,
2013-06-04 00:20:00,61.3,59.3,29.99,WNW,301,0.0,0.0,93,0.00,,,0.00,0,Wunderground v.1.15,2013-06-04 04:20:00,
2013-06-04 00:25:00,61.1,59.1,29.99,WNW,301,0.0,0.0,93,0.00,,,0.00,0,Wunderground v.1.15,2013-06-04 04:25:00,
2013-06-04 00:31:00,60.9,59.2,29.99,WNW,301,0.0,0.0,94,0.00,,,0.00,0,Wunderground v.1.15,2013-06-04 04:31:00,
2013-06-04 00:37:00,60.8,59.1,29.99,WNW,301,0.0,0.0,94,0.00,,,0.00,0,Wunderground v.1.15,2013-06-04 04:37:00,
2013-06-04 00:42:00,60.7,59.0,29.99,WNW,301,0.0,0.0,94,0.00,,,0.00,0,Wunderground v.1.15,2013-06-04 04:42:00,
2013-06-04 00:48:00,60.5,58.8,29.99,WNW,301,0.0,0.0,94,0.00,,,0.00,0,Wunderground v.1.15,2013-06-04 04:48:00,
2013-06-04 00:54:00,60.3,58.6,29.99,WNW,301,0.0,0.0,94,0.00,,,0.00,0,Wunderground v.1.15,2013-06-04 04:54:00,
2013-06-04 01:00:00,60.1,58.4,29.99,WNW,301,0.0,0.0,94,0.00,,,0.00,0,Wunderground v.1.15,2013-06-04 05:00:00,
2013-06-04 01:06:00,60.0,58.6,29.99,WNW,301,0.0,0.0,95,0.00,,,0.00,0,Wunderground v.1.15,2013-06-04 05:06:00,
2013-06-04 01:12:00,59.9,58.5,29.99,WNW,302,0.0,0.0,95,0.00,,,0.00,0,Wunderground v.1.15,2013-06-04 05:12:00,
2013-06-04 01:18:00,59.7,58.3,29.99,WNW,302,0.0,0.0,95,0.00,,,0.00,0,Wunderground v.1.15,2013-06-04 05:18:00,
2013-06-04 01:24:00,59.6,58.2,29.99,WNW,302,0.0,0.0,95,0.00,,,0.00,0,Wunderground v.1.15,2013-06-04 05:24:00,
2013-06-04 01:29:00,59.4,58.0,29.99,WNW,302,0.0,0.0,95,0.00,,,0.00,0,Wunderground v.1.15,2013-06-04 05:29:00,
2013-06-04 01:35:00,59.3,57.9,29.99,WNW,302,0.0,0.0,95,0.00,,,0.00,0,Wunderground v.1.15,2013-06-04 05:35:00,
2013-06-04 01:41:00,59.2,58.1,29.99,WNW,302,1.0,1.0,96,0.00,,,0.00,0,Wunderground v.1.15,2013-06-04 05:41:00,
2013-06-04 01:47:00,59.1,58.0,29.99,WNW,302,0.0,1.0,96,0.00,,,0.00,0,Wunderground v.1.15,2013-06-04 05:47:00,
2013-06-04 01:52:00,59.1,58.0,29.99,WNW,302,0.0,0.0,96,0.00,,,0.00,0,Wunderground v.1.15,2013-06-04 05:52:00,
2013-06-04 01:57:00,59.0,57.9,29.99,WNW,302,0.0,0.0,96,0.00,,,0.00,0,Wunderground v.1.15,2013-06-04 05:57:00,
2013-06-04 02:02:00,58.9,57.8,29.99,WNW,302,0.0,0.0,96,0.00,,,0.00,0,Wunderground v.1.15,2013-06-04 06:02:00,
2013-06-04 02:07:00,58.7,57.6,29.99,WNW,302,0.0,0.0,96,0.00,,,0.00,0,Wunderground v.1.15,2013-06-04 06:07:00,
2013-06-04 02:12:00,58.6,57.5,29.99,WNW,302,0.0,0.0,96,0.00,,,0.00,0,Wunderground v.1.15,2013-06-04 06:12:00,
2013-06-04 02:17:00,58.6,57.5,29.99,WNW,302,0.0,0.0,96,0.00,,,0.00,0,Wunderground v.1.15,2013-06-04 06:17:00,
2013-06-04 02:23:00,58.5,57.4,29.99,WNW,302,0.0,0.0,96,0.00,,,0.00,0,Wunderground v.1.15,2013-06-04 06:23:00,
2013-06-04 02:28:00,58.5,57.4,29.99,WNW,302,0.0,0.0,96,0.00,,,0.00,0,Wunderground v.1.15,2013-06-04 06:28:00,
2013-06-04 02:33:00,58.5,57.4,29.99,WNW,302,0.0,0.0,96,0.00,,,0.00,0,Wunderground v.1.15,2013-06-04 06:33:00,
2013-06-04 02:38:00,58.6,57.5,29.99,WNW,302,0.0,0.0,96,0.00,,,0.00,0,Wunderground v.1.15,2013-06-04 06:38:00,
2013-06-04 02:43:00,58.6,57.5,29.99,WNW,302,0.0,0.0,96,0.00,,,0.00,0,Wunderground v.1.15,2013-06-04 06:43:00,
2013-06-04 02:48:00,58.7,57.9,29.99,WNW,302,0.0,0.0,97,0.00,,,0.00,0,Wunderground v.1.15,2013-06-04 06:48:00,
2013-06-04 02:53:00,58.9,58.1,29.99,WNW,302,0.0,0.0,97,0.00,,,0.00,0,Wunderground v.1.15,2013-06-04 06:53:00,
2013-06-04 02:58:00,59.0,58.2,29.98,WNW,302,0.0,0.0,97,0.00,,,0.00,0,Wunderground v.1.15,2013-06-04 06:58:00,
2013-06-04 03:03:00,59.1,58.2,29.99,WNW,302,0.0,0.0,97,0.00,,,0.00,0,Wunderground v.1.15,2013-06-04 07:03:00,
2013-06-04 03:08:00,59.2,58.3,29.99,WNW,302,0.0,0.0,97,0.00,,,0.00,0,Wunderground v.1.15,2013-06-04 07:08:00,
2013-06-04 03:13:00,59.3,58.4,29.99,WNW,302,0.0,0.0,97,0.00,,,0.00,0,Wunderground v.1.15,2013-06-04 07:13:00,
2013-06-04 03:18:00,59.3,58.4,29.99,WNW,302,0.0,0.0,97,0.00,,,0.00,0,Wunderground v.1.15,2013-06-04 07:18:00,
2013-06-04 03:23:00,59.4,58.5,29.99,WNW,302,0.0,0.0,97,0.00,,,0.00,0,Wunderground v.1.15,2013-06-04 07:23:00,
2013-06-04 03:28:00,59.4,58.5,29.99,WNW,302,0.0,0.0,97,0.00,,,0.00,0,Wunderground v.1.15,2013-06-04 07:28:00,
2013-06-04 03:33:00,59.5,58.6,29.99,WNW,302,0.0,0.0,97,0.00,,,0.00,0,Wunderground v.1.15,2013-06-04 07:33:00,
2013-06-04 03:38:00,59.5,58.6,29.99,WNW,302,0.0,1.0,97,0.00,,,0.00,0,Wunderground v.1.15,2013-06-04 07:38:00,
2013-06-04 03:43:00,59.5,58.6,29.99,WNW,302,0.0,0.0,97,0.00,,,0.00,0,Wunderground v.1.15,2013-06-04 07:43:00,
2013-06-04 03:48:00,59.4,58.5,29.98,WNW,302,0.0,0.0,97,0.00,,,0.00,0,Wunderground v.1.15,2013-06-04 07:48:00,
2013-06-04 03:54:00,59.4,58.5,29.98,WNW,302,0.0,0.0,97,0.00,,,0.00,0,Wunderground v.1.15,2013-06-04 07:54:00,
2013-06-04 03:59:00,59.3,58.4,29.98,WNW,302,0.0,0.0,97,0.00,,,0.00,0,Wunderground v.1.15,2013-06-04 07:59:00,
2013-06-04 04:04:00,59.2,58.3,29.98,WNW,302,0.0,0.0,97,0.00,,,0.00,0,Wunderground v.1.15,2013-06-04 08:04:00,
2013-06-04 04:09:00,59.1,58.2,29.98,WNW,302,0.0,0.0,97,0.00,,,0.00,0,Wunderground v.1.15,2013-06-04 08:09:00,
2013-06-04 04:14:00,59.0,58.2,29.98,WNW,302,0.0,0.0,97,0.00,,,0.00,0,Wunderground v.1.15,2013-06-04 08:14:00,
2013-06-04 04:19:00,58.9,58.1,29.98,WNW,302,0.0,0.0,97,0.00,,,0.00,0,Wunderground v.1.15,2013-06-04 08:19:00,
2013-06-04 04:24:00,58.9,58.1,29.99,WNW,302,0.0,0.0,97,0.00,,,0.00,0,Wunderground v.1.15,2013-06-04 08:24:00,
2013-06-04 04:29:00,58.8,58.0,29.98,WNW,302,0.0,0.0,97,0.00,,,0.00,0,Wunderground v.1.15,2013-06-04 08:29:00,
2013-06-04 04:34:00,58.8,58.0,29.99,WNW,302,0.0,0.0,97,0.00,,,0.00,0,Wunderground v.1.15,2013-06-04 08:34:00,
2013-06-04 04:39:00,58.8,58.0,29.98,WNW,302,0.0,0.0,97,0.00,,,0.00,0,Wunderground v.1.15,2013-06-04 08:39:00,
2013-06-04 04:44:00,58.8,58.0,29.99,WNW,302,0.0,0.0,97,0.00,,,0.00,0,Wunderground v.1.15,2013-06-04 08:44:00,
2013-06-04 04:49:00,58.8,58.0,29.99,WNW,302,0.0,0.0,97,0.00,,,0.00,0,Wunderground v.1.15,2013-06-04 08:49:00,
2013-06-04 04:54:00,58.7,57.9,29.99,WNW,302,0.0,0.0,97,0.00,,,0.00,0,Wunderground v.1.15,2013-06-04 08:54:00,
2013-06-04 04:59:00,58.7,57.9,29.99,WNW,302,0.0,0.0,97,0.00,,,0.00,0,Wunderground v.1.15,2013-06-04 08:59:00,
2013-06-04 05:05:00,58.8,58.0,29.99,WNW,302,0.0,0.0,97,0.00,,,0.00,0,Wunderground v.1.15,2013-06-04 09:05:00,
2013-06-04 05:10:00,58.7,57.9,30.00,WNW,302,0.0,0.0,97,0.00,,,0.00,0,Wunderground v.1.15,2013-06-04 09:10:00,
2013-06-04 05:15:00,58.7,57.9,30.00,WNW,302,0.0,1.0,97,0.00,,,0.00,0,Wunderground v.1.15,2013-06-04 09:15:00,
2013-06-04 05:20:00,58.6,57.8,30.00,WNW,302,0.0,1.0,97,0.00,,,0.00,0,Wunderground v.1.15,2013-06-04 09:20:00,
2013-06-04 05:25:00,58.6,58.0,30.00,WNW,302,0.0,0.0,98,0.00,,,0.00,0,Wunderground v.1.15,2013-06-04 09:25:00,
2013-06-04 05:30:00,58.6,58.0,30.00,WNW,302,0.0,0.0,98,0.00,,,0.00,0,Wunderground v.1.15,2013-06-04 09:30:00,
2013-06-04 05:35:00,58.6,58.0,30.00,WNW,302,0.0,0.0,98,0.00,,,0.00,0,Wunderground v.1.15,2013-06-04 09:35:00,
2013-06-04 05:40:00,58.6,58.0,30.00,WNW,302,0.0,0.0,98,0.00,,,0.00,0,Wunderground v.1.15,2013-06-04 09:40:00,
2013-06-04 05:45:00,58.6,58.0,30.00,WNW,302,0.0,0.0,98,0.00,,,0.00,0,Wunderground v.1.15,2013-06-04 09:45:00,
2013-06-04 05:50:00,58.6,58.0,30.01,WNW,302,0.0,0.0,98,0.00,,,0.00,0,Wunderground v.1.15,2013-06-04 09:50:00,
2013-06-04 05:55:00,58.5,57.9,30.01,WNW,302,0.0,2.0,98,0.00,,,0.00,0,Wunderground v.1.15,2013-06-04 09:55:00,
2013-06-04 06:00:00,58.5,57.9,30.01,WNW,302,1.0,1.0,98,0.00,,,0.00,0,Wunderground v.1.15,2013-06-04 10:00:00,
2013-06-04 06:05:00,58.4,57.8,30.01,WNW,302,0.0,1.0,98,0.00,,,0.00,0,Wunderground v.1.15,2013-06-04 10:05:00,
2013-06-04 06:10:00,58.3,57.7,30.01,WNW,302,0.0,0.0,98,0.00,,,0.00,0,Wunderground v.1.15,2013-06-04 10:10:00,
2013-06-04 06:15:00,58.2,57.6,30.01,WNW,302,0.0,0.0,98,0.00,,,0.00,0,Wunderground v.1.15,2013-06-04 10:15:00,
2013-06-04 06:20:00,58.2,57.6,30.02,WNW,302,0.0,0.0,98,0.00,,,0.00,0,Wunderground v.1.15,2013-06-04 10:20:00,
2013-06-04 06:25:00,58.2,57.6,30.02,WNW,302,0.0,0.0,98,0.00,,,0.00,0,Wunderground v.1.15,2013-06-04 10:25:00,
2013-06-04 06:30:00,58.2,57.6,30.02,WNW,302,0.0,0.0,98,0.00,,,0.00,5,Wunderground v.1.15,2013-06-04 10:30:00,
2013-06-04 06:36:00,58.1,57.5,30.02,WNW,302,0.0,0.0,98,0.00,,,0.00,7,Wunderground v.1.15,2013-06-04 10:36:00,
2013-06-04 06:41:00,58.1,57.5,30.02,WNW,302,0.0,0.0,98,0.00,,,0.00,11,Wunderground v.1.15,2013-06-04 10:41:00,
2013-06-04 06:46:00,58.1,57.5,30.02,WNW,302,0.0,0.0,98,0.00,,,0.00,12,Wunderground v.1.15,2013-06-04 10:46:00,
2013-06-04 06:51:00,58.1,57.5,30.03,WNW,302,0.0,0.0,98,0.00,,,0.00,18,Wunderground v.1.15,2013-06-04 10:51:00,
2013-06-04 06:56:00,58.2,57.6,30.03,WNW,302,0.0,0.0,98,0.00,,,0.00,21,Wunderground v.1.15,2013-06-04 10:56:00,
2013-06-04 07:01:00,58.2,57.6,30.03,WNW,302,0.0,0.0,98,0.00,,,0.00,25,Wunderground v.1.15,2013-06-04 11:01:00,
2013-06-04 07:07:00,58.3,57.7,30.03,WNW,302,0.0,0.0,98,0.00,,,0.00,26,Wunderground v.1.15,2013-06-04 11:07:00,
2013-06-04 07:12:00,58.3,57.7,30.03,WNW,302,0.0,0.0,98,0.00,,,0.00,33,Wunderground v.1.15,2013-06-04 11:12:00,
2013-06-04 07:17:00,58.4,57.8,30.03,WNW,302,0.0,0.0,98,0.00,,,0.00,33,Wunderground v.1.15,2013-06-04 11:17:00,
2013-06-04 07:22:00,58.4,57.8,30.03,WNW,302,0.0,0.0,98,0.00,,,0.00,46,Wunderground v.1.15,2013-06-04 11:22:00,
2013-06-04 07:27:00,58.5,57.9,30.03,WNW,302,0.0,1.0,98,0.00,,,0.00,47,Wunderground v.1.15,2013-06-04 11:27:00,
2013-06-04 07:32:00,58.6,58.0,30.03,WNW,303,0.0,1.0,98,0.00,,,0.00,54,Wunderground v.1.15,2013-06-04 11:32:00,
2013-06-04 07:37:00,58.6,58.0,30.04,WNW,303,0.0,1.0,98,0.00,,,0.00,56,Wunderground v.1.15,2013-06-04 11:37:00,
2013-06-04 07:42:00,58.7,58.1,30.03,WNW,303,0.0,0.0,98,0.00,,,0.00,72,Wunderground v.1.15,2013-06-04 11:42:00,
2013-06-04 07:47:00,58.8,58.2,30.03,WNW,303,0.0,1.0,98,0.00,,,0.00,74,Wunderground v.1.15,2013-06-04 11:47:00,
2013-06-04 07:52:00,58.9,58.3,30.03,WNW,303,0.0,1.0,98,0.00,,,0.00,86,Wunderground v.1.15,2013-06-04 11:52:00,
2013-06-04 07:57:00,59.0,58.4,30.03,WNW,303,0.0,3.0,98,0.00,,,0.00,84,Wunderground v.1.15,2013-06-04 11:57:00,
2013-06-04 08:02:00,58.9,58.3,30.03,WNW,303,0.0,0.0,98,0.00,,,0.00,63,Wunderground v.1.15,2013-06-04 12:02:00,
2013-06-04 08:07:00,58.9,58.3,30.03,WNW,303,0.0,0.0,98,0.00,,,0.00,83,Wunderground v.1.15,2013-06-04 12:07:00,
2013-06-04 08:12:00,59.0,58.4,30.03,WNW,303,0.0,0.0,98,0.00,,,0.00,90,Wunderground v.1.15,2013-06-04 12:12:00,
2013-06-04 08:17:00,59.1,58.5,30.03,WNW,303,0.0,0.0,98,0.00,,,0.00,86,Wunderground v.1.15,2013-06-04 12:17:00,
2013-06-04 08:22:00,59.3,58.7,30.03,WNW,303,0.0,0.0,98,0.00,,,0.00,111,Wunderground v.1.15,2013-06-04 12:22:00,
2013-06-04 08:27:00,59.4,58.8,30.03,NW,305,0.0,1.0,98,0.00,,,0.00,137,Wunderground v.1.15,2013-06-04 12:27:00,
2013-06-04 08:32:00,59.6,59.0,30.03,NW,305,0.0,1.0,98,0.00,,,0.00,148,Wunderground v.1.15,2013-06-04 12:32:00,
2013-06-04 08:37:00,59.8,59.2,30.04,NW,305,0.0,1.0,98,0.00,,,0.00,105,Wunderground v.1.15,2013-06-04 12:37:00,
2013-06-04 08:42:00,59.9,59.3,30.04,NW,305,0.0,0.0,98,0.00,,,0.00,90,Wunderground v.1.15,2013-06-04 12:42:00,
2013-06-04 08:47:00,60.1,59.5,30.04,NW,306,0.0,2.0,98,0.00,,,0.00,118,Wunderground v.1.15,2013-06-04 12:47:00,
2013-06-04 08:52:00,60.1,59.5,30.04,NW,306,0.0,0.0,98,0.00,,,0.00,120,Wunderground v.1.15,2013-06-04 12:52:00,
2013-06-04 08:57:00,60.3,59.7,30.04,NW,307,0.0,1.0,98,0.00,,,0.00,185,Wunderground v.1.15,2013-06-04 12:57:00,
2013-06-04 09:02:00,60.5,60.2,30.04,NW,307,0.0,1.0,99,0.00,,,0.00,202,Wunderground v.1.15,2013-06-04 13:02:00,
2013-06-04 09:07:00,60.7,60.1,30.04,NW,307,0.0,1.0,98,0.00,,,0.00,202,Wunderground v.1.15,2013-06-04 13:07:00,
2013-06-04 09:12:00,60.9,60.3,30.04,NW,307,0.0,1.0,98,0.00,,,0.00,183,Wunderground v.1.15,2013-06-04 13:12:00,
2013-06-04 09:17:00,61.0,60.4,30.04,NW,307,0.0,3.0,98,0.00,,,0.00,206,Wunderground v.1.15,2013-06-04 13:17:00,
2013-06-04 09:22:00,61.1,60.8,30.04,NW,307,0.0,1.0,99,0.00,,,0.00,216,Wunderground v.1.15,2013-06-04 13:22:00,
2013-06-04 09:27:00,61.2,60.9,30.05,NW,307,1.0,2.0,99,0.00,,,0.00,220,Wunderground v.1.15,2013-06-04 13:27:00,
2013-06-04 09:32:00,61.3,61.0,30.05,NW,307,1.0,2.0,99,0.00,,,0.00,251,Wunderground v.1.15,2013-06-04 13:32:00,
2013-06-04 09:37:00,61.6,61.0,30.05,NW,307,0.0,2.0,98,0.00,,,0.00,243,Wunderground v.1.15,2013-06-04 13:37:00,
2013-06-04 09:42:00,61.9,61.6,30.05,NW,307,0.0,0.0,99,0.00,,,0.00,225,Wunderground v.1.15,2013-06-04 13:42:00,
2013-06-04 09:47:00,62.2,61.9,30.05,NW,307,1.0,2.0,99,0.00,,,0.00,221,Wunderground v.1.15,2013-06-04 13:47:00,
2013-06-04 09:52:00,61.9,61.6,30.05,NW,307,0.0,3.0,99,0.00,,,0.00,255,Wunderground v.1.15,2013-06-04 13:52:00,
2013-06-04 09:57:00,62.0,61.7,30.05,NW,308,0.0,3.0,99,0.00,,,0.00,287,Wunderground v.1.15,2013-06-04 13:57:00,
2013-06-04 10:02:00,62.1,61.8,30.05,NW,308,0.0,3.0,99,0.00,,,0.00,434,Wunderground v.1.15,2013-06-04 14:02:00,
2013-06-04 10:07:00,62.9,62.6,30.05,East,92,0.0,3.0,99,0.00,,,0.00,489,Wunderground v.1.15,2013-06-04 14:07:00,
2013-06-04 10:12:00,63.3,63.0,30.05,East,94,0.0,4.0,99,0.00,,,0.00,436,Wunderground v.1.15,2013-06-04 14:12:00,
2013-06-04 10:17:00,63.8,63.5,30.05,East,95,0.0,4.0,99,0.00,,,0.00,410,Wunderground v.1.15,2013-06-04 14:17:00,
2013-06-04 10:22:00,64.4,64.1,30.05,East,95,0.0,1.0,99,0.00,,,0.00,745,Wunderground v.1.15,2013-06-04 14:22:00,
2013-06-04 10:27:00,65.0,64.7,30.05,East,95,2.0,2.0,99,0.00,,,0.00,759,Wunderground v.1.15,2013-06-04 14:27:00,
2013-06-04 10:32:00,65.0,64.7,30.05,NW,306,3.0,4.0,99,0.00,,,0.00,744,Wunderground v.1.15,2013-06-04 14:32:00,
2013-06-04 10:37:00,64.7,64.4,30.05,NW,306,3.0,4.0,99,0.00,,,0.00,738,Wunderground v.1.15,2013-06-04 14:37:00,
2013-06-04 10:42:00,65.1,64.8,30.05,NW,307,2.0,2.0,99,0.00,,,0.00,738,Wunderground v.1.15,2013-06-04 14:42:00,
2013-06-04 10:47:00,65.6,65.3,30.05,NW,307,0.0,3.0,99,0.00,,,0.00,752,Wunderground v.1.15,2013-06-04 14:47:00,
2013-06-04 10:52:00,65.8,65.5,30.05,NW,310,0.0,2.0,99,0.00,,,0.00,763,Wunderground v.1.15,2013-06-04 14:52:00,
2013-06-04 10:57:00,66.5,66.2,30.05,NW,307,2.0,4.0,99,0.00,,,0.00,779,Wunderground v.1.15,2013-06-04 14:57:00,
2013-06-04 11:02:00,66.9,66.6,30.05,NW,307,0.0,1.0,99,0.00,,,0.00,793,Wunderground v.1.15,2013-06-04 15:02:00,
2013-06-04 11:07:00,67.5,67.2,30.04,NNW,330,0.0,4.0,99,0.00,,,0.00,828,Wunderground v.1.15,2013-06-04 15:07:00,
2013-06-04 11:12:00,68.1,67.5,30.04,NW,305,0.0,4.0,98,0.00,,,0.00,837,Wunderground v.1.15,2013-06-04 15:12:00,
2013-06-04 11:17:00,68.6,68.0,30.04,WNW,300,0.0,4.0,98,0.00,,,0.00,853,Wunderground v.1.15,2013-06-04 15:17:00,
2013-06-04 11:23:00,69.0,68.1,30.04,WNW,302,0.0,2.0,97,0.00,,,0.00,907,Wunderground v.1.15,2013-06-04 15:23:00,
2013-06-04 11:28:00,69.7,68.2,30.04,WNW,302,0.0,2.0,95,0.00,,,0.00,849,Wunderground v.1.15,2013-06-04 15:28:00,
2013-06-04 11:33:00,70.6,67.5,30.05,WSW,243,1.0,2.0,90,0.00,,,0.00,867,Wunderground v.1.15,2013-06-04 15:33:00,
2013-06-04 11:38:00,71.0,66.3,30.04,North,5,2.0,4.0,85,0.00,,,0.00,872,Wunderground v.1.15,2013-06-04 15:38:00,
2013-06-04 11:43:00,71.6,63.3,30.04,NNE,13,0.0,5.0,75,0.00,,,0.00,884,Wunderground v.1.15,2013-06-04 15:43:00,
2013-06-04 11:48:00,72.3,64.7,30.04,WNW,300,0.0,7.0,77,0.00,,,0.00,605,Wunderground v.1.15,2013-06-04 15:48:00,
2013-06-04 11:53:00,73.2,64.0,30.04,SW,227,0.0,3.0,73,0.00,,,0.00,904,Wunderground v.1.15,2013-06-04 15:53:00,
2013-06-04 11:58:00,74.0,64.4,30.04,South,186,0.0,6.0,72,0.00,,,0.00,912,Wunderground v.1.15,2013-06-04 15:58:00,
2013-06-04 12:03:00,75.0,64.1,30.04,WNW,286,4.0,4.0,69,0.00,,,0.00,912,Wunderground v.1.15,2013-06-04 16:03:00,
2013-06-04 12:08:00,75.5,65.0,30.04,NNW,344,2.0,4.0,70,0.00,,,0.00,937,Wunderground v.1.15,2013-06-04 16:08:00,
2013-06-04 12:13:00,75.7,64.4,30.04,WNW,293,0.0,5.0,68,0.00,,,0.00,960,Wunderground v.1.15,2013-06-04 16:13:00,
2013-06-04 12:18:00,75.9,63.3,30.04,WNW,296,0.0,5.0,65,0.00,,,0.00,933,Wunderground v.1.15,2013-06-04 16:18:00,
2013-06-04 12:23:00,76.5,65.6,30.04,WSW,243,0.0,2.0,69,0.00,,,0.00,1034,Wunderground v.1.15,2013-06-04 16:23:00,
2013-06-04 12:28:00,76.7,63.2,30.03,NW,305,1.0,6.0,63,0.00,,,0.00,621,Wunderground v.1.15,2013-06-04 16:28:00,
2013-06-04 12:33:00,76.6,62.6,30.03,WNW,297,0.0,2.0,62,0.00,,,0.00,318,Wunderground v.1.15,2013-06-04 16:33:00,
2013-06-04 12:38:00,76.6,63.5,30.03,West,278,0.0,5.0,64,0.00,,,0.00,227,Wunderground v.1.15,2013-06-04 16:38:00,
2013-06-04 12:43:00,76.4,63.8,30.03,West,281,0.0,3.0,65,0.00,,,0.00,895,Wunderground v.1.15,2013-06-04 16:43:00,
2013-06-04 12:48:00,76.7,64.9,30.03,WSW,246,0.0,3.0,67,0.00,,,0.00,854,Wunderground v.1.15,2013-06-04 16:48:00,
2013-06-04 12:53:00,77.1,64.4,30.03,WNW,289,7.0,7.0,65,0.00,,,0.00,974,Wunderground v.1.15,2013-06-04 16:53:00,
2013-06-04 12:58:00,77.3,62.8,30.03,WNW,298,3.0,7.0,61,0.00,,,0.00,1027,Wunderground v.1.15,2013-06-04 16:58:00,
2013-06-04 13:03:00,77.7,65.0,30.03,NW,310,3.0,5.0,65,0.00,,,0.00,1030,Wunderground v.1.15,2013-06-04 17:03:00,
2013-06-04 13:08:00,78.1,63.1,30.03,SSW,197,0.0,5.0,60,0.00,,,0.00,988,Wunderground v.1.15,2013-06-04 17:08:00,
2013-06-04 13:13:00,78.4,63.4,30.03,West,278,0.0,3.0,60,0.00,,,0.00,1028,Wunderground v.1.15,2013-06-04 17:13:00,
2013-06-04 13:18:00,78.8,62.3,30.03,NW,318,3.0,6.0,57,0.00,,,0.00,918,Wunderground v.1.15,2013-06-04 17:18:00,
2013-06-04 13:23:00,79.1,62.6,30.03,NW,305,3.0,6.0,57,0.00,,,0.00,946,Wunderground v.1.15,2013-06-04 17:23:00,
2013-06-04 13:28:00,79.3,63.7,30.03,WNW,297,0.0,6.0,59,0.00,,,0.00,933,Wunderground v.1.15,2013-06-04 17:28:00,
2013-06-04 13:33:00,79.7,62.6,30.03,SSE,166,1.0,7.0,56,0.00,,,0.00,979,Wunderground v.1.15,2013-06-04 17:33:00,
2013-06-04 13:38:00,80.0,61.9,30.02,South,169,0.0,7.0,54,0.00,,,0.00,1002,Wunderground v.1.15,2013-06-04 17:38:00,
2013-06-04 13:43:00,80.2,62.0,30.02,South,171,0.0,4.0,54,0.00,,,0.00,847,Wunderground v.1.15,2013-06-04 17:43:00,
2013-06-04 13:48:00,80.6,61.9,30.02,South,171,0.0,4.0,53,0.00,,,0.00,1053,Wunderground v.1.15,2013-06-04 17:48:00,
2013-06-04 13:53:00,80.9,63.7,30.02,NNW,338,2.0,5.0,56,0.00,,,0.00,933,Wunderground v.1.15,2013-06-04 17:53:00,
2013-06-04 13:58:00,80.7,60.9,30.02,WSW,253,0.0,5.0,51,0.00,,,0.00,1007,Wunderground v.1.15,2013-06-04 17:58:00,
2013-06-04 14:03:00,81.0,62.8,30.02,WNW,291,3.0,3.0,54,0.00,,,0.00,970,Wunderground v.1.15,2013-06-04 18:03:00,
2013-06-04 14:08:00,81.1,63.9,30.02,WNW,284,1.0,4.0,56,0.00,,,0.00,1129,Wunderground v.1.15,2013-06-04 18:08:00,
2013-06-04 14:13:00,80.9,61.6,30.02,NW,323,2.0,3.0,52,0.00,,,0.00,322,Wunderground v.1.15,2013-06-04 18:13:00,
2013-06-04 14:18:00,80.5,63.4,30.02,NNW,333,0.0,5.0,56,0.00,,,0.00,1121,Wunderground v.1.15,2013-06-04 18:18:00,
2013-06-04 14:23:00,80.5,63.4,30.02,NNW,340,0.0,3.0,56,0.00,,,0.00,262,Wunderground v.1.15,2013-06-04 18:23:00,
2013-06-04 14:29:00,80.5,63.9,30.02,South,180,0.0,3.0,57,0.00,,,0.00,1035,Wunderground v.1.15,2013-06-04 18:29:00,
2013-06-04 14:34:00,81.0,63.8,30.02,West,267,3.0,4.0,56,0.00,,,0.00,972,Wunderground v.1.15,2013-06-04 18:34:00,
2013-06-04 14:39:00,81.0,62.3,30.02,West,279,2.0,5.0,53,0.00,,,0.00,1004,Wunderground v.1.15,2013-06-04 18:39:00,
2013-06-04 14:44:00,80.9,61.6,30.01,NW,325,0.0,4.0,52,0.00,,,0.00,1021,Wunderground v.1.15,2013-06-04 18:44:00,
2013-06-04 14:49:00,80.8,62.1,30.01,NW,312,2.0,6.0,53,0.00,,,0.00,1021,Wunderground v.1.15,2013-06-04 18:49:00,
2013-06-04 14:54:00,80.5,61.8,30.01,NW,308,2.0,4.0,53,0.00,,,0.00,292,Wunderground v.1.15,2013-06-04 18:54:00,
2013-06-04 14:59:00,80.2,61.5,30.01,NNW,336,2.0,5.0,53,0.00,,,0.00,986,Wunderground v.1.15,2013-06-04 18:59:00,
2013-06-04 15:04:00,80.2,62.6,30.01,NNW,337,0.0,3.0,55,0.00,,,0.00,1013,Wunderground v.1.15,2013-06-04 19:04:00,
2013-06-04 15:09:00,80.7,62.5,30.01,West,279,0.0,3.0,54,0.00,,,0.00,283,Wunderground v.1.15,2013-06-04 19:09:00,
2013-06-04 15:14:00,81.4,64.2,30.00,West,279,0.0,1.0,56,0.00,,,0.00,1028,Wunderground v.1.15,2013-06-04 19:14:00,
2013-06-04 15:19:00,81.9,62.0,30.00,NW,304,2.0,3.0,51,0.00,,,0.00,543,Wunderground v.1.15,2013-06-04 19:19:00,
2013-06-04 15:24:00,81.6,61.7,30.00,NW,308,0.0,7.0,51,0.00,,,0.00,221,Wunderground v.1.15,2013-06-04 19:24:00,
2013-06-04 15:29:00,81.3,63.6,30.00,NW,309,0.0,7.0,55,0.00,,,0.00,1000,Wunderground v.1.15,2013-06-04 19:29:00,
2013-06-04 15:34:00,80.9,61.1,30.00,WNW,299,1.0,7.0,51,0.00,,,0.00,272,Wunderground v.1.15,2013-06-04 19:34:00,
2013-06-04 15:39:00,80.9,64.2,30.00,WNW,284,5.0,7.0,57,0.00,,,0.00,960,Wunderground v.1.15,2013-06-04 19:39:00,
2013-06-04 15:44:00,81.0,62.3,30.00,NNW,332,2.0,5.0,53,0.00,,,0.00,747,Wunderground v.1.15,2013-06-04 19:44:00,
2013-06-04 15:49:00,81.3,64.1,30.00,NW,317,8.0,8.0,56,0.00,,,0.00,914,Wunderground v.1.15,2013-06-04 19:49:00,
2013-06-04 15:54:00,81.8,62.5,30.00,WSW,255,0.0,7.0,52,0.00,,,0.00,912,Wunderground v.1.15,2013-06-04 19:54:00,
2013-06-04 15:59:00,82.2,63.9,30.00,NW,314,3.0,7.0,54,0.00,,,0.00,974,Wunderground v.1.15,2013-06-04 19:59:00,
2013-06-04 16:04:00,82.3,63.5,29.99,WNW,302,5.0,6.0,53,0.00,,,0.00,919,Wunderground v.1.15,2013-06-04 20:04:00,
2013-06-04 16:09:00,82.1,63.3,29.99,WNW,286,2.0,6.0,53,0.00,,,0.00,353,Wunderground v.1.15,2013-06-04 20:09:00,
2013-06-04 16:15:00,81.7,61.8,30.00,WNW,302,1.0,4.0,51,0.00,,,0.00,213,Wunderground v.1.15,2013-06-04 20:15:00,
2013-06-04 16:20:00,81.2,61.9,30.00,WNW,302,0.0,4.0,52,0.00,,,0.00,244,Wunderground v.1.15,2013-06-04 20:20:00,
2013-06-04 16:25:00,81.2,64.0,29.99,WNW,302,0.0,1.0,56,0.00,,,0.00,327,Wunderground v.1.15,2013-06-04 20:25:00,
2013-06-04 16:30:00,81.3,62.0,29.99,NW,316,0.0,0.0,52,0.00,,,0.00,800,Wunderground v.1.15,2013-06-04 20:30:00,
2013-06-04 16:35:00,81.8,62.5,29.99,NNW,336,2.0,3.0,52,0.00,,,0.00,738,Wunderground v.1.15,2013-06-04 20:35:00,
2013-06-04 16:40:00,82.0,62.1,29.99,West,269,1.0,2.0,51,0.00,,,0.00,773,Wunderground v.1.15,2013-06-04 20:40:00,
2013-06-04 16:45:00,82.2,61.7,29.99,WNW,299,0.0,5.0,50,0.00,,,0.00,777,Wunderground v.1.15,2013-06-04 20:45:00,
2013-06-04 16:50:00,82.5,63.1,29.99,WNW,299,3.0,3.0,52,0.00,,,0.00,763,Wunderground v.1.15,2013-06-04 20:50:00,
2013-06-04 16:55:00,82.9,62.4,29.99,NNE,14,4.0,4.0,50,0.00,,,0.00,707,Wunderground v.1.15,2013-06-04 20:55:00,
2013-06-04 17:00:00,83.2,64.3,29.99,SSE,153,0.0,1.0,53,0.00,,,0.00,214,Wunderground v.1.15,2013-06-04 21:00:00,
2013-06-04 17:05:00,83.2,64.8,29.99,SSE,148,2.0,3.0,54,0.00,,,0.00,652,Wunderground v.1.15,2013-06-04 21:05:00,
2013-06-04 17:10:00,83.3,63.3,29.99,SSW,195,0.0,2.0,51,0.00,,,0.00,605,Wunderground v.1.15,2013-06-04 21:10:00,
2013-06-04 17:15:00,83.4,61.1,29.99,West,265,0.0,3.0,47,0.00,,,0.00,608,Wunderground v.1.15,2013-06-04 21:15:00,
2013-06-04 17:20:00,83.7,63.1,29.99,WSW,250,1.0,1.0,50,0.00,,,0.00,547,Wunderground v.1.15,2013-06-04 21:20:00,
2013-06-04 17:25:00,83.9,62.7,29.99,SW,216,0.0,4.0,49,0.00,,,0.00,526,Wunderground v.1.15,2013-06-04 21:25:00,
2013-06-04 17:30:00,84.1,62.9,29.98,WNW,293,1.0,6.0,49,0.00,,,0.00,547,Wunderground v.1.15,2013-06-04 21:30:00,
2013-06-04 17:35:00,84.0,61.0,29.98,South,189,1.0,6.0,46,0.00,,,0.00,510,Wunderground v.1.15,2013-06-04 21:35:00,
2013-06-04 17:41:00,84.0,61.6,29.98,WSW,245,0.0,2.0,47,0.00,,,0.00,464,Wunderground v.1.15,2013-06-04 21:41:00,
2013-06-04 17:46:00,83.8,62.0,29.98,West,279,3.0,5.0,48,0.00,,,0.00,432,Wunderground v.1.15,2013-06-04 21:46:00,
2013-06-04 17:51:00,83.6,62.4,29.98,West,281,1.0,2.0,49,0.00,,,0.00,441,Wunderground v.1.15,2013-06-04 21:51:00,
2013-06-04 17:56:00,83.4,62.8,29.98,WNW,290,3.0,4.0,50,0.00,,,0.00,469,Wunderground v.1.15,2013-06-04 21:56:00,
2013-06-04 18:01:00,83.2,61.5,29.98,WNW,295,0.0,1.0,48,0.00,,,0.00,496,Wunderground v.1.15,2013-06-04 22:01:00,
2013-06-04 18:06:00,83.4,61.7,29.98,SSW,192,0.0,4.0,48,0.00,,,0.00,461,Wunderground v.1.15,2013-06-04 22:06:00,
2013-06-04 18:11:00,83.5,62.3,29.98,SSW,198,0.0,1.0,49,0.00,,,0.00,455,Wunderground v.1.15,2013-06-04 22:11:00,
2013-06-04 18:16:00,83.5,60.5,29.98,West,280,0.0,4.0,46,0.00,,,0.00,399,Wunderground v.1.15,2013-06-04 22:16:00,
2013-06-04 18:21:00,83.7,60.1,29.98,WNW,287,0.0,1.0,45,0.00,,,0.00,425,Wunderground v.1.15,2013-06-04 22:21:00,
2013-06-04 18:26:00,83.8,61.4,29.98,NW,316,0.0,3.0,47,0.00,,,0.00,411,Wunderground v.1.15,2013-06-04 22:26:00,
2013-06-04 18:31:00,83.7,59.5,29.98,WNW,286,0.0,1.0,44,0.00,,,0.00,392,Wunderground v.1.15,2013-06-04 22:31:00,
2013-06-04 18:36:00,83.9,63.3,29.98,WNW,286,0.0,1.0,50,0.00,,,0.00,376,Wunderground v.1.15,2013-06-04 22:36:00,
2013-06-04 18:41:00,84.1,61.7,29.98,WNW,286,0.0,0.0,47,0.00,,,0.00,353,Wunderground v.1.15,2013-06-04 22:41:00,
2013-06-04 18:46:00,84.3,63.1,29.97,WNW,286,0.0,0.0,49,0.00,,,0.00,325,Wunderground v.1.15,2013-06-04 22:46:00,
2013-06-04 18:51:00,84.5,61.4,29.97,WNW,286,0.0,0.0,46,0.00,,,0.00,309,Wunderground v.1.15,2013-06-04 22:51:00,
2013-06-04 18:56:00,84.7,62.2,29.98,WNW,286,1.0,1.0,47,0.00,,,0.00,297,Wunderground v.1.15,2013-06-04 22:56:00,
2013-06-04 19:01:00,84.7,61.0,29.98,WNW,286,0.0,2.0,45,0.00,,,0.00,287,Wunderground v.1.15,2013-06-04 23:01:00,
2013-06-04 19:06:00,84.5,61.4,29.98,WNW,286,0.0,2.0,46,0.00,,,0.00,274,Wunderground v.1.15,2013-06-04 23:06:00,
2013-06-04 19:11:00,84.3,60.0,29.98,WNW,286,2.0,2.0,44,0.00,,,0.00,248,Wunderground v.1.15,2013-06-04 23:11:00,
2013-06-04 19:16:00,84.1,61.7,29.98,WNW,286,0.0,2.0,47,0.00,,,0.00,234,Wunderground v.1.15,2013-06-04 23:16:00,
2013-06-04 19:21:00,83.8,62.0,29.98,WNW,286,0.0,0.0,48,0.00,,,0.00,213,Wunderground v.1.15,2013-06-04 23:21:00,
2013-06-04 19:26:00,83.6,64.7,29.98,WNW,286,0.0,2.0,53,0.00,,,0.00,185,Wunderground v.1.15,2013-06-04 23:26:00,
2013-06-04 19:31:00,83.3,64.4,29.98,WNW,286,1.0,3.0,53,0.00,,,0.00,174,Wunderground v.1.15,2013-06-04 23:31:00,
2013-06-04 19:36:00,82.8,65.5,29.98,NW,314,0.0,3.0,56,0.00,,,0.00,144,Wunderground v.1.15,2013-06-04 23:36:00,
2013-06-04 19:42:00,82.3,65.0,29.98,NW,314,0.0,1.0,56,0.00,,,0.00,148,Wunderground v.1.15,2013-06-04 23:42:00,
2013-06-04 19:47:00,82.1,65.4,29.98,NW,314,0.0,1.0,57,0.00,,,0.00,118,Wunderground v.1.15,2013-06-04 23:47:00,
2013-06-04 19:52:00,82.0,66.7,29.98,NW,314,0.0,0.0,60,0.00,,,0.00,102,Wunderground v.1.15,2013-06-04 23:52:00,
2013-06-04 19:57:00,81.9,68.5,29.98,NW,314,0.0,1.0,64,0.00,,,0.00,77,Wunderground v.1.15,2013-06-04 23:57:00,
2013-06-04 20:02:00,81.7,68.3,29.98,NW,314,0.0,0.0,64,0.00,,,0.00,77,Wunderground v.1.15,2013-06-05 00:02:00,
2013-06-04 20:07:00,81.2,68.8,29.98,NW,314,0.0,0.0,66,0.00,,,0.00,56,Wunderground v.1.15,2013-06-05 00:07:00,
2013-06-04 20:12:00,80.1,68.2,29.98,NW,315,0.0,0.0,67,0.00,,,0.00,30,Wunderground v.1.15,2013-06-05 00:12:00,
2013-06-04 20:17:00,78.6,66.7,29.98,NW,316,0.0,1.0,67,0.00,,,0.00,33,Wunderground v.1.15,2013-06-05 00:17:00,
2013-06-04 20:22:00,77.5,66.5,29.98,NW,316,0.0,0.0,69,0.00,,,0.00,26,Wunderground v.1.15,2013-06-05 00:22:00,
2013-06-04 20:27:00,77.0,67.3,29.98,NW,316,0.0,0.0,72,0.00,,,0.00,25,Wunderground v.1.15,2013-06-05 00:27:00,
2013-06-04 20:32:00,76.1,66.0,29.98,NW,316,0.0,0.0,71,0.00,,,0.00,16,Wunderground v.1.15,2013-06-05 00:32:00,
2013-06-04 20:37:00,75.4,66.1,29.99,NW,316,0.0,0.0,73,0.00,,,0.00,9,Wunderground v.1.15,2013-06-05 00:37:00,
2013-06-04 20:42:00,74.7,66.2,29.99,NW,316,0.0,0.0,75,0.00,,,0.00,5,Wunderground v.1.15,2013-06-05 00:42:00,
2013-06-04 20:47:00,73.8,65.4,29.99,NW,316,0.0,0.0,75,0.00,,,0.00,0,Wunderground v.1.15,2013-06-05 00:47:00,
2013-06-04 20:52:00,73.3,64.9,29.99,NW,316,0.0,0.0,75,0.00,,,0.00,0,Wunderground v.1.15,2013-06-05 00:52:00,
2013-06-04 20:57:00,72.9,65.3,29.99,NW,316,0.0,0.0,77,0.00,,,0.00,0,Wunderground v.1.15,2013-06-05 00:57:00,
2013-06-04 21:02:00,72.4,65.2,30.00,NW,316,0.0,0.0,78,0.00,,,0.00,0,Wunderground v.1.15,2013-06-05 01:02:00,
2013-06-04 21:07:00,72.1,65.2,30.00,NW,316,0.0,0.0,79,0.00,,,0.00,0,Wunderground v.1.15,2013-06-05 01:07:00,
2013-06-04 21:13:00,71.6,64.7,30.00,NW,316,0.0,0.0,79,0.00,,,0.00,0,Wunderground v.1.15,2013-06-05 01:13:00,
2013-06-04 21:18:00,70.8,64.3,30.00,NW,316,0.0,0.0,80,0.00,,,0.00,0,Wunderground v.1.15,2013-06-05 01:18:00,
2013-06-04 21:23:00,70.2,63.7,30.00,NW,316,0.0,0.0,80,0.00,,,0.00,0,Wunderground v.1.15,2013-06-05 01:23:00,
2013-06-04 21:28:00,69.5,63.4,30.00,NW,316,0.0,0.0,81,0.00,,,0.00,0,Wunderground v.1.15,2013-06-05 01:28:00,
2013-06-04 21:33:00,68.9,62.8,30.01,NW,316,0.0,0.0,81,0.00,,,0.00,0,Wunderground v.1.15,2013-06-05 01:33:00,
2013-06-04 21:38:00,68.7,63.3,30.01,NW,316,0.0,0.0,83,0.00,,,0.00,0,Wunderground v.1.15,2013-06-05 01:38:00,
2013-06-04 21:43:00,68.5,63.8,30.01,NW,316,0.0,0.0,85,0.00,,,0.00,0,Wunderground v.1.15,2013-06-05 01:43:00,
2013-06-04 21:48:00,68.3,63.3,30.02,NW,316,0.0,0.0,84,0.00,,,0.00,0,Wunderground v.1.15,2013-06-05 01:48:00,
2013-06-04 21:53:00,68.1,63.1,30.02,NW,316,0.0,0.0,84,0.00,,,0.00,0,Wunderground v.1.15,2013-06-05 01:53:00,
2013-06-04 21:58:00,67.8,63.1,30.02,NW,316,0.0,0.0,85,0.00,,,0.00,0,Wunderground v.1.15,2013-06-05 01:58:00,
2013-06-04 22:03:00,67.4,62.7,30.02,NW,316,0.0,0.0,85,0.00,,,0.00,0,Wunderground v.1.15,2013-06-05 02:03:00,
2013-06-04 22:08:00,67.1,62.8,30.03,NW,316,0.0,0.0,86,0.00,,,0.00,0,Wunderground v.1.15,2013-06-05 02:08:00,
2013-06-04 22:13:00,66.8,63.1,30.03,NW,316,0.0,0.0,88,0.00,,,0.00,0,Wunderground v.1.15,2013-06-05 02:13:00,
2013-06-04 22:18:00,66.4,62.7,30.04,SE,146,0.0,4.0,88,0.00,,,0.00,0,Wunderground v.1.15,2013-06-05 02:18:00,
2013-06-04 22:23:00,66.2,62.9,30.04,SE,146,0.0,0.0,89,0.00,,,0.00,0,Wunderground v.1.15,2013-06-05 02:23:00,
2013-06-04 22:28:00,66.1,62.8,30.04,SE,146,0.0,1.0,89,0.00,,,0.00,0,Wunderground v.1.15,2013-06-05 02:28:00,
2013-06-04 22:33:00,66.1,63.1,30.04,SE,146,0.0,0.0,90,0.00,,,0.00,0,Wunderground v.1.15,2013-06-05 02:33:00,
2013-06-04 22:38:00,65.9,62.9,30.04,SE,146,0.0,0.0,90,0.00,,,0.00,0,Wunderground v.1.15,2013-06-05 02:38:00,
2013-06-04 22:43:00,65.8,62.8,30.04,SE,146,0.0,0.0,90,0.00,,,0.00,0,Wunderground v.1.15,2013-06-05 02:43:00,
2013-06-04 22:48:00,65.7,63.0,30.04,SE,146,0.0,0.0,91,0.00,,,0.00,0,Wunderground v.1.15,2013-06-05 02:48:00,
2013-06-04 22:53:00,65.6,62.6,30.04,SE,146,0.0,0.0,90,0.00,,,0.00,0,Wunderground v.1.15,2013-06-05 02:53:00,
2013-06-04 22:58:00,65.5,62.5,30.04,SE,146,0.0,0.0,90,0.00,,,0.00,0,Wunderground v.1.15,2013-06-05 02:58:00,
2013-06-04 23:03:00,65.4,62.4,30.04,SE,146,0.0,0.0,90,0.00,,,0.00,0,Wunderground v.1.15,2013-06-05 03:03:00,
2013-06-04 23:08:00,65.3,62.6,30.04,SE,146,0.0,0.0,91,0.00,,,0.00,0,Wunderground v.1.15,2013-06-05 03:08:00,
2013-06-04 23:13:00,65.2,62.5,30.04,SE,146,0.0,0.0,91,0.00,,,0.00,0,Wunderground v.1.15,2013-06-05 03:13:00,
2013-06-04 23:18:00,65.0,62.3,30.04,SE,146,0.0,0.0,91,0.00,,,0.00,0,Wunderground v.1.15,2013-06-05 03:18:00,
2013-06-04 23:23:00,64.9,62.2,30.04,SE,146,0.0,0.0,91,0.00,,,0.00,0,Wunderground v.1.15,2013-06-05 03:23:00,
2013-06-04 23:28:00,64.8,62.1,30.05,SE,146,0.0,0.0,91,0.00,,,0.00,0,Wunderground v.1.15,2013-06-05 03:28:00,
2013-06-04 23:33:00,64.7,62.0,30.04,SE,146,0.0,0.0,91,0.00,,,0.00,0,Wunderground v.1.15,2013-06-05 03:33:00,
2013-06-04 23:38:00,64.6,61.9,30.04,SE,146,0.0,0.0,91,0.00,,,0.00,0,Wunderground v.1.15,2013-06-05 03:38:00,
2013-06-04 23:43:00,64.5,61.8,30.04,SE,146,0.0,0.0,91,0.00,,,0.00,0,Wunderground v.1.15,2013-06-05 03:43:00,
2013-06-04 23:48:00,64.4,62.0,30.04,SE,146,0.0,0.0,92,0.00,,,0.00,0,Wunderground v.1.15,2013-06-05 03:48:00,
2013-06-04 23:54:00,64.3,61.9,30.04,SE,146,0.0,0.0,92,0.00,,,0.00,0,Wunderground v.1.15,2013-06-05 03:54:00,
2013-06-04 23:59:00,64.2,61.8,30.04,SE,146,0.0,0.0,92,0.00,,,0.00,0,Wunderground v.1.15,2013-06-05 03:59:00,